createdAt,value
2022-12-25T00:03:34.935Z,99900.44
2022-12-25T00:07:36.630Z,99903.78
2022-12-25T00:11:38.181Z,99904.28
2022-12-25T00:15:41.713Z,99895.19
2022-12-25T00:19:43.503Z,99901.22
2022-12-25T00:23:45.154Z,99882.50
2022-12-25T00:27:46.860Z,99884.16
2022-12-25T00:31:48.544Z,99874.22
2022-12-25T00:36:00.593Z,99869.22
2022-12-25T00:40:02.167Z,99870.19
2022-12-25T00:44:03.735Z,99864.44
2022-12-25T00:48:05.626Z,99872.06
2022-12-25T00:52:07.722Z,99873.53
2022-12-25T00:56:10.702Z,99882.41
2022-12-25T01:00:12.765Z,99881.25
2022-12-25T01:04:14.429Z,99896.09
2022-12-25T01:08:15.959Z,99899.72
2022-12-25T01:12:17.511Z,99895.03
2022-12-25T01:16:21.950Z,99903.28
2022-12-25T01:20:23.519Z,99903.84
2022-12-25T01:24:25.069Z,99894.75
2022-12-25T01:28:26.643Z,99908.31
2022-12-25T01:32:28.454Z,99923.75
2022-12-25T01:36:30.025Z,99918.25
2022-12-25T01:40:34.330Z,99917.91
2022-12-25T01:44:35.859Z,99911.13
2022-12-25T01:48:39.349Z,99916.81
2022-12-25T01:52:41.538Z,99918.22
2022-12-25T01:56:53.984Z,99914.78
2022-12-25T02:00:55.793Z,99902.44
2022-12-25T02:05:05.543Z,99913.56
2022-12-25T02:09:07.411Z,99903.97
2022-12-25T02:13:09.415Z,99897.59
2022-12-25T02:17:32.940Z,99881.06
2022-12-25T02:21:53.010Z,99847.41
2022-12-25T02:26:25.093Z,99847.22
2022-12-25T02:30:28.407Z,99850.47
2022-12-25T02:34:49.154Z,99841.56
2022-12-25T02:39:14.823Z,99851.94
2022-12-25T02:43:41.598Z,99864.81
2022-12-25T02:48:01.805Z,99864.00
2022-12-25T02:52:28.559Z,99851.38
2022-12-25T02:56:50.304Z,99864.41
2022-12-25T03:01:16.954Z,99862.47
2022-12-25T03:05:42.219Z,99857.94
2022-12-25T03:10:11.528Z,99839.72
2022-12-25T03:14:32.080Z,99838.50
2022-12-25T03:18:34.244Z,99833.69
2022-12-25T03:22:55.412Z,99832.13
2022-12-25T03:26:57.494Z,99822.75
2022-12-25T03:31:27.021Z,99824.00
2022-12-25T03:35:46.420Z,99824.66
2022-12-25T03:40:21.337Z,99823.84
2022-12-25T03:45:04.986Z,99842.16
2022-12-25T03:49:40.225Z,99846.31
2022-12-25T03:54:06.722Z,99853.72
2022-12-25T03:58:37.749Z,99835.25
2022-12-25T04:02:57.990Z,99818.94
2022-12-25T04:07:18.578Z,99821.66
2022-12-25T04:11:38.869Z,99816.81
2022-12-25T04:15:59.104Z,99819.53
2022-12-25T04:20:19.295Z,99810.56
2022-12-25T04:24:39.270Z,99806.53
2022-12-25T04:28:59.607Z,99794.03
2022-12-25T04:33:20.770Z,99786.44
2022-12-25T04:37:23.185Z,99797.88
2022-12-25T04:41:24.742Z,99797.72
2022-12-25T04:45:26.418Z,99798.34
2022-12-25T04:49:28.124Z,99802.88
2022-12-25T04:53:29.683Z,99804.38
2022-12-25T04:57:31.501Z,99801.34
2022-12-25T05:01:33.188Z,99812.72
2022-12-25T05:05:34.821Z,99817.75
2022-12-25T05:09:36.459Z,99806.94
2022-12-25T05:13:38.736Z,99781.56
2022-12-25T05:17:40.561Z,99787.91
2022-12-25T05:21:42.163Z,99790.41
2022-12-25T05:25:43.715Z,99789.34
2022-12-25T05:29:45.384Z,99790.16
2022-12-25T05:33:51.372Z,99795.19
2022-12-25T05:37:53.037Z,99787.97
2022-12-25T05:41:54.737Z,99777.13
2022-12-25T05:45:56.406Z,99784.56
2022-12-25T05:49:58.129Z,99783.75
2022-12-25T05:53:59.782Z,99772.13
2022-12-25T05:58:01.399Z,99781.50
2022-12-25T06:02:03.173Z,99793.84
2022-12-25T06:06:05.081Z,99787.50
2022-12-25T06:10:07.398Z,99794.34
2022-12-25T06:14:12.706Z,99792.34
2022-12-25T06:18:14.252Z,99784.34
2022-12-25T06:22:15.926Z,99785.75
2022-12-25T06:26:19.593Z,99779.41
2022-12-25T06:30:21.278Z,99769.47
2022-12-25T06:34:23.439Z,99770.28
2022-12-25T06:38:25.024Z,99763.38
2022-12-25T06:42:26.616Z,99755.94
2022-12-25T06:46:30.081Z,99757.59
2022-12-25T06:50:31.678Z,99758.72
2022-12-25T06:54:33.253Z,99749.09
2022-12-25T06:58:34.835Z,99768.94
2022-12-25T07:02:38.620Z,99772.31
2022-12-25T07:06:40.332Z,99777.00
2022-12-25T07:10:41.859Z,99786.28
2022-12-25T07:14:44.990Z,99763.13
2022-12-25T07:18:46.593Z,99763.72
2022-12-25T07:22:48.198Z,99752.69
2022-12-25T07:26:51.423Z,99750.75
2022-12-25T07:30:53.680Z,99749.34
2022-12-25T07:34:55.249Z,99751.19
2022-12-25T07:38:57.309Z,99739.56
2022-12-25T07:42:58.858Z,99740.41
2022-12-25T07:47:00.416Z,99726.38
2022-12-25T07:51:05.846Z,99732.16
2022-12-25T07:55:07.696Z,99722.47
2022-12-25T07:59:09.302Z,99737.59
2022-12-25T08:03:50.561Z,99737.41
2022-12-25T08:07:57.622Z,99751.31
2022-12-25T08:11:59.662Z,99747.78
2022-12-25T08:16:03.606Z,99726.16
2022-12-25T08:20:06.008Z,99725.31
2022-12-25T08:24:08.090Z,99717.88
2022-12-25T08:28:09.677Z,99702.25
2022-12-25T08:32:12.856Z,99706.50
2022-12-25T08:36:14.577Z,99719.03
2022-12-25T08:40:16.296Z,99712.41
2022-12-25T08:44:17.925Z,99689.09
2022-12-25T08:48:19.495Z,99666.91
2022-12-25T08:52:21.375Z,99657.09
2022-12-25T08:56:23.006Z,99661.38
2022-12-25T09:00:24.542Z,99705.97
2022-12-25T09:04:27.206Z,99701.03
2022-12-25T09:08:28.896Z,99713.41
2022-12-25T09:12:30.442Z,99715.34
2022-12-25T09:16:32.998Z,99722.13
2022-12-25T09:20:34.782Z,99725.09
2022-12-25T09:24:36.405Z,99745.16
2022-12-25T09:28:38.002Z,99747.34
2022-12-25T09:32:40.401Z,99733.69
2022-12-25T09:36:42.147Z,99735.50
2022-12-25T09:40:43.721Z,99719.88
2022-12-25T09:44:54.256Z,99730.78
2022-12-25T09:49:06.186Z,99737.78
2022-12-25T09:53:12.885Z,99725.69
2022-12-25T09:57:15.278Z,99713.31
2022-12-25T10:01:41.374Z,99685.47
2022-12-25T10:06:18.023Z,99667.47
2022-12-25T10:10:41.140Z,99656.91
2022-12-25T10:14:56.791Z,99653.38
2022-12-25T10:19:27.490Z,99644.06
2022-12-25T10:23:49.283Z,99627.84
2022-12-25T10:27:54.669Z,99629.63
2022-12-25T10:31:56.796Z,99612.25
2022-12-25T10:35:58.495Z,99612.81
2022-12-25T10:40:00.163Z,99603.38
2022-12-25T10:44:16.142Z,99597.88
2022-12-25T10:48:24.952Z,99605.41
2022-12-25T10:52:28.826Z,99611.00
2022-12-25T10:56:30.751Z,99609.03
2022-12-25T11:00:33.296Z,99619.78
2022-12-25T11:04:37.469Z,99625.78
2022-12-25T11:08:39.262Z,99626.56
2022-12-25T11:12:44.777Z,99618.22
2022-12-25T11:16:46.829Z,99609.28
2022-12-25T11:20:53.314Z,99604.50
2022-12-25T11:24:55.379Z,99613.91
2022-12-25T11:28:57.949Z,99614.44
2022-12-25T11:33:06.760Z,99617.69
2022-12-25T11:37:17.865Z,99611.00
2022-12-25T11:41:23.456Z,99609.31
2022-12-25T11:45:33.277Z,99617.06
2022-12-25T11:49:49.478Z,99599.38
2022-12-25T11:53:54.903Z,99584.16
2022-12-25T11:58:01.541Z,99580.88
2022-12-25T12:02:25.155Z,99570.69
2022-12-25T12:06:51.073Z,99547.56
2022-12-25T12:11:19.466Z,99517.00
2022-12-25T12:15:41.336Z,99505.72
2022-12-25T12:19:43.187Z,99501.63
2022-12-25T12:24:10.763Z,99509.94
2022-12-25T12:28:24.342Z,99502.00
2022-12-25T12:32:32.096Z,99508.88
2022-12-25T12:36:36.766Z,99510.72
2022-12-25T12:40:44.221Z,99510.00
2022-12-25T12:44:46.531Z,99517.63
2022-12-25T12:48:50.427Z,99526.69
2022-12-25T12:52:52.212Z,99524.03
2022-12-25T12:57:21.791Z,99523.59
2022-12-25T13:01:26.617Z,99520.88
2022-12-25T13:05:39.300Z,99513.72
2022-12-25T13:10:08.556Z,99514.88
2022-12-25T13:14:20.208Z,99510.78
2022-12-25T13:18:22.022Z,99499.47
2022-12-25T13:22:32.776Z,99496.69
2022-12-25T13:26:35.055Z,99494.47
2022-12-25T13:30:36.831Z,99492.81
2022-12-25T13:34:43.242Z,99497.25
2022-12-25T13:38:46.833Z,99487.25
2022-12-25T13:43:29.843Z,99480.03
2022-12-25T13:47:37.129Z,99462.84
2022-12-25T13:51:38.866Z,99462.56
2022-12-25T13:55:44.058Z,99457.31
2022-12-25T14:00:04.457Z,99447.06
2022-12-25T14:04:14.195Z,99435.69
2022-12-25T14:08:22.052Z,99431.31
2022-12-25T14:12:24.659Z,99439.09
2022-12-25T14:16:27.220Z,99441.59
2022-12-25T14:20:33.819Z,99436.31
2022-12-25T14:24:35.424Z,99431.84
2022-12-25T14:28:37.793Z,99432.97
2022-12-25T14:32:44.651Z,99440.72
2022-12-25T14:36:47.013Z,99459.59
2022-12-25T14:40:58.761Z,99469.84
2022-12-25T14:45:19.186Z,99453.78
2022-12-25T14:49:24.748Z,99467.94
2022-12-25T14:53:35.568Z,99461.56
2022-12-25T14:57:40.583Z,99459.06
2022-12-25T15:01:42.971Z,99457.13
2022-12-25T15:05:44.765Z,99459.31
2022-12-25T15:09:46.435Z,99449.06
2022-12-25T15:13:48.010Z,99456.00
2022-12-25T15:17:50.489Z,99454.34
2022-12-25T15:21:52.320Z,99453.78
2022-12-25T15:25:53.934Z,99452.66
2022-12-25T15:30:11.308Z,99442.13
2022-12-25T15:34:21.078Z,99438.22
2022-12-25T15:38:22.717Z,99434.09
2022-12-25T15:42:25.238Z,99438.78
2022-12-25T15:46:27.059Z,99439.09
2022-12-25T15:50:29.375Z,99440.72
2022-12-25T15:54:32.126Z,99453.50
2022-12-25T15:58:33.683Z,99457.91
2022-12-25T16:02:35.363Z,99479.50
2022-12-25T16:06:37.463Z,99468.44
2022-12-25T16:10:40.483Z,99475.66
2022-12-25T16:14:42.720Z,99465.94
2022-12-25T16:18:47.670Z,99456.00
2022-12-25T16:22:49.647Z,99459.59
2022-12-25T16:26:51.184Z,99459.06
2022-12-25T16:30:52.814Z,99453.22
2022-12-25T16:34:54.392Z,99438.28
2022-12-25T16:38:56.764Z,99435.53
2022-12-25T16:42:58.467Z,99427.78
2022-12-25T16:47:00.197Z,99437.47
2022-12-25T16:51:08.272Z,99448.84
2022-12-25T16:55:10.208Z,99470.44
2022-12-25T16:59:11.923Z,99468.78
2022-12-25T17:03:13.731Z,99462.94
2022-12-25T17:07:17.269Z,99469.03
2022-12-25T17:11:23.625Z,99468.75
2022-12-25T17:15:25.193Z,99459.09
2022-12-25T17:19:26.780Z,99451.84
2022-12-25T17:23:28.432Z,99472.06
2022-12-25T17:27:30.017Z,99478.41
2022-12-25T17:31:31.903Z,99474.81
2022-12-25T17:35:36.388Z,99477.00
2022-12-25T17:39:38.649Z,99481.97
2022-12-25T17:43:42.191Z,99477.28
2022-12-25T17:47:43.761Z,99463.72
2022-12-25T17:51:46.355Z,99464.00
2022-12-25T17:55:48.026Z,99465.13
2022-12-25T17:59:49.596Z,99472.88
2022-12-25T18:03:52.283Z,99460.69
2022-12-25T18:07:53.981Z,99452.41
2022-12-25T18:11:55.880Z,99455.16
2022-12-25T18:15:57.508Z,99458.47
2022-12-25T18:19:59.249Z,99461.78
2022-12-25T18:24:03.859Z,99466.78
2022-12-25T18:28:05.399Z,99476.19
2022-12-25T18:32:07.568Z,99462.91
2022-12-25T18:36:11.853Z,99468.44
2022-12-25T18:40:14.019Z,99477.59
2022-12-25T18:44:15.729Z,99480.38
2022-12-25T18:48:17.339Z,99486.16
2022-12-25T18:52:48.080Z,99458.78
2022-12-25T18:56:40.681Z,99450.47
2022-12-25T19:00:42.304Z,99432.47
2022-12-25T19:04:46.568Z,99442.72
2022-12-25T19:08:48.724Z,99448.25
2022-12-25T19:12:50.327Z,99432.78
2022-12-25T19:16:52.877Z,99440.78
2022-12-25T19:20:54.458Z,99447.41
2022-12-25T19:24:56.029Z,99433.03
2022-12-25T19:28:57.600Z,99424.47
2022-12-25T19:32:59.248Z,99431.94
2022-12-25T19:37:00.793Z,99439.13
2022-12-25T19:41:11.473Z,99444.09
2022-12-25T19:45:13.012Z,99456.25
2022-12-25T19:49:14.826Z,99461.81
2022-12-25T19:53:17.609Z,99465.66
2022-12-25T19:57:19.060Z,99480.31
2022-12-25T20:01:22.645Z,99471.75
2022-12-25T20:05:24.242Z,99464.53
2022-12-25T20:09:25.844Z,99461.22
2022-12-25T20:13:27.488Z,99460.94
2022-12-25T20:17:29.061Z,99464.00
2022-12-25T20:21:30.839Z,99478.91
2022-12-25T20:25:32.571Z,99482.78
2022-12-25T20:29:34.109Z,99489.13
2022-12-25T20:33:36.453Z,99488.88
2022-12-25T20:37:38.109Z,99497.72
2022-12-25T20:41:40.703Z,99488.03
2022-12-25T20:45:42.528Z,99488.88
2022-12-25T20:49:44.180Z,99497.16
2022-12-25T20:53:46.206Z,99504.38
2022-12-25T20:57:47.759Z,99514.88
2022-12-25T21:01:49.586Z,99516.00
2022-12-25T21:05:53.238Z,99518.19
2022-12-25T21:09:54.832Z,99516.00
2022-12-25T21:13:57.048Z,99538.94
2022-12-25T21:17:58.687Z,99543.94
2022-12-25T21:22:00.316Z,99529.81
2022-12-25T21:26:13.572Z,99536.19
2022-12-25T21:30:16.112Z,99541.44
2022-12-25T21:34:18.343Z,99552.25
2022-12-25T21:38:20.720Z,99550.03
2022-12-25T21:42:22.424Z,99553.94
2022-12-25T21:46:24.771Z,99555.28
2022-12-25T21:50:45.355Z,99552.00
2022-12-25T21:54:47.004Z,99559.19
2022-12-25T21:58:48.748Z,99553.09
2022-12-25T22:02:50.557Z,99558.09
2022-12-25T22:07:20.395Z,99573.03
2022-12-25T22:11:41.358Z,99566.09
2022-12-25T22:16:01.423Z,99560.56
2022-12-25T22:20:04.444Z,99565.81
2022-12-25T22:24:08.206Z,99575.78
2022-12-25T22:28:09.748Z,99589.09
2022-12-25T22:32:13.261Z,99589.91
2022-12-25T22:36:14.923Z,99582.44
2022-12-25T22:40:18.977Z,99596.28
2022-12-25T22:44:20.567Z,99589.09
2022-12-25T22:48:22.095Z,99584.94
2022-12-25T22:52:24.850Z,99598.22
2022-12-25T22:56:26.367Z,99576.91
2022-12-25T23:00:28.403Z,99573.28
2022-12-25T23:04:30.146Z,99578.56
2022-12-25T23:08:31.705Z,99576.63
2022-12-25T23:12:51.896Z,99573.56
2022-12-25T23:16:53.544Z,99575.78
2022-12-25T23:21:18.979Z,99557.53
2022-12-25T23:25:39.401Z,99574.66
2022-12-25T23:29:41.267Z,99592.38
2022-12-25T23:33:42.828Z,99586.28
2022-12-25T23:37:45.117Z,99576.06
2022-12-25T23:41:46.715Z,99576.34
2022-12-25T23:45:48.324Z,99564.72
2022-12-25T23:49:49.869Z,99569.16
2022-12-25T23:53:51.692Z,99570.25
2022-12-25T23:57:53.362Z,99562.53
